createdAt,value
2019-03-24T00:00:33.375Z,6.79
2019-03-24T00:01:40.998Z,6.66
2019-03-24T00:02:33.702Z,6.75
2019-03-24T00:03:33.876Z,6.85
2019-03-24T00:04:34.018Z,6.84
2019-03-24T00:05:34.200Z,6.85
2019-03-24T00:06:34.348Z,7.03
2019-03-24T00:07:34.498Z,6.87
2019-03-24T00:08:34.662Z,6.89
2019-03-24T00:09:34.814Z,6.97
2019-03-24T00:10:34.981Z,6.93
2019-03-24T00:11:35.149Z,6.99
2019-03-24T00:12:35.329Z,7.02
2019-03-24T00:13:35.482Z,6.92
2019-03-24T00:14:35.655Z,6.88
2019-03-24T00:15:35.815Z,6.92
2019-03-24T00:16:35.985Z,6.82
2019-03-24T00:17:36.133Z,6.87
2019-03-24T00:18:36.312Z,6.85
2019-03-24T00:19:36.525Z,6.89
2019-03-24T00:20:36.650Z,6.78
2019-03-24T00:21:36.805Z,6.74
2019-03-24T00:22:36.971Z,6.82
2019-03-24T00:23:37.118Z,6.84
2019-03-24T00:24:37.280Z,6.78
2019-03-24T00:25:37.424Z,6.77
2019-03-24T00:26:37.596Z,6.84
2019-03-24T00:27:37.768Z,6.69
2019-03-24T00:28:37.927Z,6.51
2019-03-24T00:29:38.081Z,6.64
2019-03-24T00:30:38.242Z,6.52
2019-03-24T00:31:38.402Z,6.44
2019-03-24T00:32:38.580Z,6.45
2019-03-24T00:33:38.711Z,6.57
2019-03-24T00:34:38.876Z,6.59
2019-03-24T00:35:39.035Z,6.56
2019-03-24T00:36:39.187Z,6.56
2019-03-24T00:37:39.341Z,6.44
2019-03-24T00:38:39.497Z,6.31
2019-03-24T00:39:39.662Z,6.38
2019-03-24T00:40:47.464Z,6.31
2019-03-24T00:41:40.009Z,6.38
2019-03-24T00:42:40.179Z,6.33
2019-03-24T00:43:40.354Z,6.24
2019-03-24T00:44:40.524Z,6.28
2019-03-24T00:45:40.696Z,6.26
2019-03-24T00:46:40.872Z,6.27
2019-03-24T00:47:41.046Z,6.26
2019-03-24T00:48:41.224Z,6.38
2019-03-24T00:49:41.385Z,6.33
2019-03-24T00:50:41.556Z,6.33
2019-03-24T00:51:41.730Z,6.27
2019-03-24T00:52:41.905Z,6.28
2019-03-24T00:53:42.075Z,6.24
2019-03-24T00:54:42.249Z,6.24
2019-03-24T00:55:42.422Z,6.12
2019-03-24T00:56:42.600Z,6.16
2019-03-24T00:57:42.767Z,6.14
2019-03-24T00:58:42.949Z,6.20
2019-03-24T00:59:43.113Z,6.20
2019-03-24T01:00:43.288Z,6.20
2019-03-24T01:01:43.464Z,6.20
2019-03-24T01:02:43.634Z,6.20
2019-03-24T01:03:43.807Z,5.97
2019-03-24T01:04:43.987Z,6.01
2019-03-24T01:05:44.159Z,6.08
2019-03-24T01:06:44.330Z,6.19
2019-03-24T01:07:44.502Z,5.94
2019-03-24T01:08:44.671Z,6.02
2019-03-24T01:09:44.851Z,6.08
2019-03-24T01:10:45.027Z,6.05
2019-03-24T01:11:45.193Z,6.01
2019-03-24T01:12:45.368Z,5.98
2019-03-24T01:13:45.576Z,6.02
2019-03-24T01:14:45.704Z,6.02
2019-03-24T01:15:47.990Z,6.04
2019-03-24T01:16:46.047Z,5.93
2019-03-24T01:17:46.239Z,6.07
2019-03-24T01:18:46.380Z,6.08
2019-03-24T01:19:46.565Z,6.07
2019-03-24T01:20:46.731Z,6.08
2019-03-24T01:21:46.898Z,5.93
2019-03-24T01:22:47.070Z,5.99
2019-03-24T01:23:47.235Z,5.99
2019-03-24T01:24:47.412Z,5.94
2019-03-24T01:25:47.585Z,5.99
2019-03-24T01:26:47.737Z,6.05
2019-03-24T01:27:47.922Z,5.98
2019-03-24T01:28:48.083Z,6.01
2019-03-24T01:29:48.263Z,6.04
2019-03-24T01:30:48.440Z,6.05
2019-03-24T01:31:48.621Z,6.09
2019-03-24T01:32:48.782Z,6.12
2019-03-24T01:33:48.955Z,6.05
2019-03-24T01:34:49.125Z,5.98
2019-03-24T01:35:49.299Z,5.98
2019-03-24T01:36:49.470Z,5.76
2019-03-24T01:37:49.654Z,5.73
2019-03-24T01:38:49.838Z,5.84
2019-03-24T01:39:49.992Z,5.73
2019-03-24T01:40:50.174Z,5.79
2019-03-24T01:41:50.344Z,5.73
2019-03-24T01:42:50.502Z,5.82
2019-03-24T01:43:50.675Z,5.83
2019-03-24T01:44:50.857Z,5.80
2019-03-24T01:45:58.638Z,5.76
2019-03-24T01:46:51.201Z,5.75
2019-03-24T01:47:51.375Z,5.86
2019-03-24T01:48:51.540Z,5.87
2019-03-24T01:49:51.710Z,5.91
2019-03-24T01:50:51.886Z,5.89
2019-03-24T01:51:52.052Z,5.91
2019-03-24T01:52:52.224Z,5.80
2019-03-24T01:53:52.394Z,5.76
2019-03-24T01:54:52.566Z,5.86
2019-03-24T01:55:52.748Z,5.91
2019-03-24T01:56:52.908Z,5.91
2019-03-24T01:57:53.070Z,5.98
2019-03-24T01:58:53.247Z,5.98
2019-03-24T01:59:53.422Z,6.04
2019-03-24T02:00:53.602Z,6.04
2019-03-24T02:01:53.759Z,6.14
2019-03-24T02:02:53.934Z,6.09
2019-03-24T02:03:54.105Z,6.14
2019-03-24T02:04:54.276Z,6.19
2019-03-24T02:05:54.452Z,6.19
2019-03-24T02:06:54.635Z,6.26
2019-03-24T02:07:54.799Z,6.28
2019-03-24T02:08:54.983Z,6.22
2019-03-24T02:09:55.145Z,6.31
2019-03-24T02:10:55.316Z,6.31
2019-03-24T02:11:55.502Z,6.30
2019-03-24T02:12:55.662Z,6.27
2019-03-24T02:13:55.842Z,6.24
2019-03-24T02:14:56.001Z,6.27
2019-03-24T02:15:56.175Z,6.33
2019-03-24T02:16:56.344Z,6.24
2019-03-24T02:17:56.517Z,6.17
2019-03-24T02:18:56.692Z,6.19
2019-03-24T02:19:56.873Z,6.17
2019-03-24T02:20:57.041Z,6.24
2019-03-24T02:21:57.218Z,6.28
2019-03-24T02:22:57.392Z,6.36
2019-03-24T02:23:57.561Z,6.33
2019-03-24T02:24:57.734Z,6.42
2019-03-24T02:25:57.903Z,6.42
2019-03-24T02:26:58.074Z,6.41
2019-03-24T02:27:58.249Z,6.49
2019-03-24T02:28:58.426Z,6.36
2019-03-24T02:29:58.615Z,6.36
2019-03-24T02:30:58.789Z,6.39
2019-03-24T02:31:58.959Z,6.30
2019-03-24T02:32:59.125Z,6.28
2019-03-24T02:33:59.300Z,6.35
2019-03-24T02:34:59.471Z,6.33
2019-03-24T02:35:59.626Z,6.33
2019-03-24T02:36:59.806Z,6.24
2019-03-24T02:37:59.977Z,6.20
2019-03-24T02:39:00.151Z,6.20
2019-03-24T02:40:00.499Z,6.04
2019-03-24T02:41:00.501Z,5.87
2019-03-24T02:42:00.676Z,5.91
2019-03-24T02:43:00.848Z,6.02
2019-03-24T02:44:01.014Z,6.19
2019-03-24T02:45:01.198Z,6.09
2019-03-24T02:46:01.374Z,6.12
2019-03-24T02:47:01.554Z,6.22
2019-03-24T02:48:01.713Z,6.20
2019-03-24T02:49:01.884Z,6.22
2019-03-24T02:50:02.063Z,6.22
2019-03-24T02:51:02.246Z,6.24
2019-03-24T02:52:02.413Z,6.38
2019-03-24T02:53:02.580Z,6.31
2019-03-24T02:54:02.762Z,6.41
2019-03-24T02:55:02.937Z,6.38
2019-03-24T02:56:03.122Z,6.24
2019-03-24T02:57:03.283Z,6.26
2019-03-24T02:58:03.449Z,6.22
2019-03-24T02:59:03.626Z,6.08
2019-03-24T03:00:03.817Z,6.12
2019-03-24T03:01:03.972Z,6.24
2019-03-24T03:02:04.165Z,6.12
2019-03-24T03:03:04.330Z,6.24
2019-03-24T03:04:04.506Z,6.16
2019-03-24T03:05:04.693Z,6.16
2019-03-24T03:06:04.847Z,6.16
2019-03-24T03:07:05.010Z,6.16
2019-03-24T03:08:05.194Z,6.31
2019-03-24T03:09:05.364Z,6.35
2019-03-24T03:10:05.545Z,6.31
2019-03-24T03:11:05.707Z,6.30
2019-03-24T03:12:05.890Z,6.38
2019-03-24T03:13:06.053Z,6.27
2019-03-24T03:14:06.222Z,6.36
2019-03-24T03:15:06.406Z,6.56
2019-03-24T03:16:06.569Z,6.48
2019-03-24T03:17:06.741Z,6.45
2019-03-24T03:18:06.912Z,6.49
2019-03-24T03:19:07.087Z,6.44
2019-03-24T03:20:07.262Z,6.57
2019-03-24T03:21:07.431Z,6.52
2019-03-24T03:22:07.611Z,6.59
2019-03-24T03:23:07.782Z,6.60
2019-03-24T03:24:07.962Z,6.54
2019-03-24T03:25:08.147Z,6.67
2019-03-24T03:26:08.303Z,6.56
2019-03-24T03:27:08.476Z,6.59
2019-03-24T03:28:08.643Z,6.59
2019-03-24T03:29:08.837Z,6.59
2019-03-24T03:30:09.000Z,6.48
2019-03-24T03:31:09.170Z,6.69
2019-03-24T03:32:09.394Z,6.69
2019-03-24T03:33:09.660Z,6.72
2019-03-24T03:34:10.200Z,6.77
2019-03-24T03:35:09.844Z,6.82
2019-03-24T03:36:10.049Z,6.82
2019-03-24T03:37:10.203Z,6.85
2019-03-24T03:38:10.369Z,6.84
2019-03-24T03:39:10.554Z,7.05
2019-03-24T03:40:10.746Z,7.06
2019-03-24T03:41:10.889Z,7.14
2019-03-24T03:42:11.063Z,7.24
2019-03-24T03:43:11.234Z,7.21
2019-03-24T03:44:11.411Z,7.32
2019-03-24T03:45:11.609Z,7.32
2019-03-24T03:46:11.789Z,7.39
2019-03-24T03:47:11.955Z,7.47
2019-03-24T03:48:12.131Z,7.48
2019-03-24T03:49:12.303Z,7.43
2019-03-24T03:50:12.474Z,7.36
2019-03-24T03:51:12.681Z,7.56
2019-03-24T03:52:12.809Z,7.39
2019-03-24T03:53:12.996Z,7.20
2019-03-24T03:54:13.160Z,7.29
2019-03-24T03:55:13.343Z,7.25
2019-03-24T03:56:13.510Z,7.25
2019-03-24T03:57:13.680Z,7.17
2019-03-24T03:58:13.862Z,7.25
2019-03-24T03:59:14.035Z,7.35
2019-03-24T04:00:14.221Z,7.28
2019-03-24T04:01:14.410Z,7.47
2019-03-24T04:02:15.285Z,7.47
2019-03-24T04:03:14.702Z,7.42
2019-03-24T04:04:14.872Z,7.58
2019-03-24T04:05:15.049Z,7.33
2019-03-24T04:06:15.243Z,7.56
2019-03-24T04:07:15.396Z,7.50
2019-03-24T04:08:15.592Z,7.15
2019-03-24T04:09:15.759Z,7.24
2019-03-24T04:10:15.922Z,7.20
2019-03-24T04:11:16.105Z,7.25
2019-03-24T04:12:16.267Z,7.32
2019-03-24T04:13:16.439Z,7.43
2019-03-24T04:14:16.616Z,7.39
2019-03-24T04:15:16.830Z,7.51
2019-03-24T04:16:16.959Z,7.38
2019-03-24T04:17:17.142Z,7.40
2019-03-24T04:18:17.336Z,7.42
2019-03-24T04:19:17.528Z,7.63
2019-03-24T04:20:17.665Z,7.48
2019-03-24T04:21:17.843Z,7.54
2019-03-24T04:22:18.020Z,7.63
2019-03-24T04:23:18.201Z,7.70
2019-03-24T04:24:18.373Z,7.76
2019-03-24T04:25:18.565Z,7.72
2019-03-24T04:26:18.716Z,7.72
2019-03-24T04:27:18.886Z,7.75
2019-03-24T04:28:19.071Z,7.88
2019-03-24T04:29:19.259Z,7.95
2019-03-24T04:30:19.428Z,7.93
2019-03-24T04:31:19.593Z,8.03
2019-03-24T04:32:19.770Z,8.00
2019-03-24T04:33:19.947Z,7.94
2019-03-24T04:34:20.140Z,7.94
2019-03-24T04:35:20.316Z,8.06
2019-03-24T04:36:20.475Z,7.98
2019-03-24T04:37:20.647Z,8.06
2019-03-24T04:38:20.819Z,8.08
2019-03-24T04:39:21.023Z,8.10
2019-03-24T04:40:21.173Z,8.20
2019-03-24T04:41:21.604Z,8.15
2019-03-24T04:42:21.603Z,8.28
2019-03-24T04:43:21.819Z,8.23
2019-03-24T04:44:21.900Z,8.30
2019-03-24T04:45:22.061Z,8.31
2019-03-24T04:46:22.237Z,8.33
2019-03-24T04:47:22.405Z,8.37
2019-03-24T04:48:22.574Z,8.41
2019-03-24T04:49:22.751Z,8.45
2019-03-24T04:50:22.922Z,8.36
2019-03-24T04:51:23.102Z,8.42
2019-03-24T04:52:23.276Z,8.41
2019-03-24T04:53:23.511Z,8.37
2019-03-24T04:54:23.623Z,8.45
2019-03-24T04:55:23.788Z,8.46
2019-03-24T04:56:23.982Z,8.53
2019-03-24T04:57:24.148Z,8.56
2019-03-24T04:58:24.320Z,8.56
2019-03-24T04:59:24.495Z,8.52
2019-03-24T05:00:24.675Z,8.48
2019-03-24T05:01:24.845Z,8.55
2019-03-24T05:02:25.022Z,8.60
2019-03-24T05:03:25.189Z,8.58
2019-03-24T05:04:25.361Z,8.58
2019-03-24T05:05:25.536Z,8.71
2019-03-24T05:06:25.715Z,8.64
2019-03-24T05:07:25.898Z,8.61
2019-03-24T05:08:26.075Z,8.71
2019-03-24T05:09:26.243Z,8.76
2019-03-24T05:10:26.400Z,8.74
2019-03-24T05:11:26.583Z,8.78
2019-03-24T05:12:26.768Z,8.82
2019-03-24T05:13:26.920Z,8.81
2019-03-24T05:14:27.079Z,8.88
2019-03-24T05:15:27.251Z,8.85
2019-03-24T05:16:27.416Z,8.89
2019-03-24T05:17:27.616Z,8.87
2019-03-24T05:18:27.752Z,8.88
2019-03-24T05:19:27.935Z,8.89
2019-03-24T05:20:28.093Z,8.87
2019-03-24T05:21:28.259Z,8.92
2019-03-24T05:22:28.434Z,8.87
2019-03-24T05:23:28.656Z,8.95
2019-03-24T05:24:28.797Z,8.92
2019-03-24T05:25:28.959Z,9.00
2019-03-24T05:26:29.132Z,8.82
2019-03-24T05:27:29.305Z,8.88
2019-03-24T05:28:29.481Z,8.87
2019-03-24T05:29:29.657Z,9.00
2019-03-24T05:30:29.841Z,8.92
2019-03-24T05:31:30.019Z,8.92
2019-03-24T05:32:30.184Z,8.95
2019-03-24T05:33:30.358Z,9.03
2019-03-24T05:34:30.534Z,9.04
2019-03-24T05:35:30.711Z,9.02
2019-03-24T05:36:30.886Z,8.95
2019-03-24T05:37:31.059Z,8.95
2019-03-24T05:38:31.246Z,8.82
2019-03-24T05:39:31.419Z,8.91
2019-03-24T05:40:31.594Z,8.91
2019-03-24T05:41:31.769Z,8.97
2019-03-24T05:42:31.946Z,8.92
2019-03-24T05:43:32.134Z,8.92
2019-03-24T05:44:32.298Z,9.02
2019-03-24T05:45:32.471Z,9.06
2019-03-24T05:46:32.649Z,9.03
2019-03-24T05:47:37.074Z,9.06
2019-03-24T05:48:33.002Z,9.14
2019-03-24T05:49:33.176Z,9.02
2019-03-24T05:50:33.352Z,9.03
2019-03-24T05:51:33.523Z,9.04
2019-03-24T05:52:33.696Z,9.08
2019-03-24T05:53:33.869Z,9.11
2019-03-24T05:54:34.052Z,9.08
2019-03-24T05:55:34.217Z,9.14
2019-03-24T05:56:34.391Z,9.14
2019-03-24T05:57:34.563Z,9.16
2019-03-24T05:58:34.739Z,9.18
2019-03-24T05:59:34.925Z,9.03
2019-03-24T06:00:35.095Z,9.16
2019-03-24T06:01:35.271Z,9.16
2019-03-24T06:02:35.444Z,9.19
2019-03-24T06:03:35.616Z,9.18
2019-03-24T06:04:35.801Z,9.25
2019-03-24T06:05:35.968Z,9.29
2019-03-24T06:06:36.148Z,9.29
2019-03-24T06:07:36.312Z,9.36
2019-03-24T06:08:36.490Z,9.22
2019-03-24T06:09:36.664Z,9.21
2019-03-24T06:10:36.836Z,9.21
2019-03-24T06:11:37.011Z,9.22
2019-03-24T06:12:37.181Z,9.19
2019-03-24T06:13:37.357Z,9.28
2019-03-24T06:14:37.532Z,9.21
2019-03-24T06:15:37.712Z,9.03
2019-03-24T06:16:38.063Z,9.06
2019-03-24T06:17:47.389Z,9.03
2019-03-24T06:18:38.243Z,9.14
2019-03-24T06:19:38.422Z,9.21
2019-03-24T06:20:38.599Z,9.21
2019-03-24T06:21:38.772Z,9.19
2019-03-24T06:22:38.945Z,9.28
2019-03-24T06:23:39.129Z,9.23
2019-03-24T06:24:39.306Z,9.18
2019-03-24T06:25:40.236Z,9.13
2019-03-24T06:26:39.629Z,9.22
2019-03-24T06:27:39.799Z,9.25
2019-03-24T06:28:39.975Z,9.21
2019-03-24T06:29:40.151Z,9.21
2019-03-24T06:30:40.320Z,9.16
2019-03-24T06:31:40.494Z,9.22
2019-03-24T06:32:40.670Z,9.21
2019-03-24T06:33:40.840Z,9.22
2019-03-24T06:34:41.014Z,9.23
2019-03-24T06:35:41.188Z,9.39
2019-03-24T06:36:41.367Z,9.29
2019-03-24T06:37:41.543Z,9.31
2019-03-24T06:38:41.721Z,9.36
2019-03-24T06:39:41.900Z,9.43
2019-03-24T06:40:42.081Z,9.47
2019-03-24T06:41:42.258Z,9.39
2019-03-24T06:42:42.443Z,9.37
2019-03-24T06:43:42.617Z,9.46
2019-03-24T06:44:42.828Z,9.31
2019-03-24T06:45:42.944Z,9.25
2019-03-24T06:46:43.117Z,9.34
2019-03-24T06:47:43.288Z,9.32
2019-03-24T06:48:43.457Z,9.32
2019-03-24T06:49:43.644Z,9.39
2019-03-24T06:50:43.814Z,9.29
2019-03-24T06:51:43.993Z,9.29
2019-03-24T06:52:44.167Z,9.28
2019-03-24T06:53:44.343Z,9.25
2019-03-24T06:54:44.514Z,9.22
2019-03-24T06:55:44.683Z,9.39
2019-03-24T06:56:44.862Z,9.21
2019-03-24T06:57:45.035Z,9.23
2019-03-24T06:58:45.215Z,9.31
2019-03-24T06:59:45.398Z,9.39
2019-03-24T07:00:45.566Z,9.32
2019-03-24T07:01:45.744Z,9.50
2019-03-24T07:02:45.912Z,9.47
2019-03-24T07:03:46.081Z,9.54
2019-03-24T07:04:46.267Z,9.58
2019-03-24T07:05:46.431Z,9.62
2019-03-24T07:06:46.605Z,9.72
2019-03-24T07:07:46.780Z,9.72
2019-03-24T07:08:46.948Z,9.80
2019-03-24T07:09:47.124Z,9.86
2019-03-24T07:10:47.299Z,9.84
2019-03-24T07:11:47.452Z,9.83
2019-03-24T07:12:47.637Z,9.91
2019-03-24T07:13:47.835Z,9.83
2019-03-24T07:14:48.016Z,9.83
2019-03-24T07:15:48.155Z,9.92
2019-03-24T07:16:48.330Z,10.02
2019-03-24T07:17:48.508Z,9.98
2019-03-24T07:18:48.680Z,9.94
2019-03-24T07:19:48.855Z,10.12
2019-03-24T07:20:49.040Z,10.16
2019-03-24T07:21:49.205Z,10.30
2019-03-24T07:22:49.383Z,10.23
2019-03-24T07:23:49.559Z,10.35
2019-03-24T07:24:49.727Z,10.26
2019-03-24T07:25:49.902Z,10.31
2019-03-24T07:26:50.079Z,10.33
2019-03-24T07:27:50.252Z,10.26
2019-03-24T07:28:50.430Z,10.30
2019-03-24T07:29:50.614Z,10.33
2019-03-24T07:30:50.788Z,10.38
2019-03-24T07:31:50.979Z,10.22
2019-03-24T07:32:51.130Z,10.34
2019-03-24T07:33:51.304Z,10.34
2019-03-24T07:34:51.481Z,10.34
2019-03-24T07:35:51.659Z,10.35
2019-03-24T07:36:51.821Z,10.38
2019-03-24T07:37:52.006Z,10.35
2019-03-24T07:38:59.819Z,10.31
2019-03-24T07:39:52.364Z,10.35
2019-03-24T07:40:52.534Z,10.38
2019-03-24T07:41:52.706Z,10.34
2019-03-24T07:42:52.887Z,10.35
2019-03-24T07:43:53.055Z,10.34
2019-03-24T07:44:53.233Z,10.35
2019-03-24T07:45:53.403Z,10.34
2019-03-24T07:46:53.578Z,10.46
2019-03-24T07:47:53.752Z,10.51
2019-03-24T07:48:53.917Z,10.59
2019-03-24T07:49:54.094Z,10.49
2019-03-24T07:50:54.270Z,10.46
2019-03-24T07:51:54.433Z,10.49
2019-03-24T07:52:54.629Z,10.53
2019-03-24T07:53:54.789Z,10.60
2019-03-24T07:54:54.972Z,10.69
2019-03-24T07:55:55.149Z,10.56
2019-03-24T07:56:55.314Z,10.72
2019-03-24T07:57:55.493Z,10.79
2019-03-24T07:58:55.662Z,10.84
2019-03-24T07:59:55.838Z,10.79
2019-03-24T08:00:56.013Z,10.90
2019-03-24T08:01:56.194Z,10.87
2019-03-24T08:03:03.997Z,10.97
2019-03-24T08:03:56.528Z,10.92
2019-03-24T08:04:56.714Z,11.02
2019-03-24T08:05:56.880Z,10.87
2019-03-24T08:06:57.050Z,10.89
2019-03-24T08:07:57.230Z,10.94
2019-03-24T08:08:57.416Z,10.87
2019-03-24T08:09:57.561Z,10.94
2019-03-24T08:10:57.737Z,10.93
2019-03-24T08:11:57.920Z,10.94
2019-03-24T08:12:58.179Z,10.86
2019-03-24T08:13:58.257Z,10.92
2019-03-24T08:14:59.999Z,10.96
2019-03-24T08:15:58.601Z,10.89
2019-03-24T08:16:58.794Z,10.93
2019-03-24T08:17:58.973Z,10.97
2019-03-24T08:18:59.129Z,10.99
2019-03-24T08:19:59.295Z,11.00
2019-03-24T08:20:59.464Z,11.10
2019-03-24T08:21:59.647Z,11.23
2019-03-24T08:22:59.808Z,11.17
2019-03-24T08:23:59.989Z,11.27
2019-03-24T08:25:00.461Z,11.19
2019-03-24T08:26:00.332Z,11.10
2019-03-24T08:27:00.508Z,11.18
2019-03-24T08:28:00.688Z,11.19
2019-03-24T08:29:00.854Z,11.08
2019-03-24T08:30:01.035Z,11.05
2019-03-24T08:31:01.200Z,11.07
2019-03-24T08:32:01.378Z,11.08
2019-03-24T08:33:01.551Z,11.23
2019-03-24T08:34:01.728Z,11.22
2019-03-24T08:35:01.919Z,11.30
2019-03-24T08:36:02.081Z,11.35
2019-03-24T08:37:02.254Z,11.43
2019-03-24T08:38:02.415Z,11.45
2019-03-24T08:39:02.594Z,11.48
2019-03-24T08:40:02.759Z,11.37
2019-03-24T08:41:02.986Z,11.37
2019-03-24T08:42:03.112Z,11.35
2019-03-24T08:43:03.300Z,11.25
2019-03-24T08:44:03.461Z,11.23
2019-03-24T08:45:03.651Z,11.26
2019-03-24T08:46:03.817Z,11.19
2019-03-24T08:47:03.990Z,11.00
2019-03-24T08:48:04.170Z,10.86
2019-03-24T08:49:04.349Z,10.90
2019-03-24T08:50:04.521Z,11.10
2019-03-24T08:51:04.695Z,11.05
2019-03-24T08:52:04.871Z,11.11
2019-03-24T08:53:05.038Z,11.19
2019-03-24T08:54:05.221Z,11.26
2019-03-24T08:55:05.400Z,11.36
2019-03-24T08:56:05.561Z,11.40
2019-03-24T08:57:05.739Z,11.52
2019-03-24T08:58:05.920Z,11.43
2019-03-24T08:59:06.089Z,11.57
2019-03-24T09:00:06.271Z,11.72
2019-03-24T09:01:06.432Z,11.83
2019-03-24T09:02:06.609Z,11.99
2019-03-24T09:03:06.777Z,11.97
2019-03-24T09:04:06.980Z,11.91
2019-03-24T09:05:07.103Z,11.83
2019-03-24T09:06:07.329Z,11.52
2019-03-24T09:07:07.464Z,11.60
2019-03-24T09:08:07.633Z,11.44
2019-03-24T09:09:07.797Z,11.57
2019-03-24T09:10:07.963Z,11.65
2019-03-24T09:11:08.105Z,11.68
2019-03-24T09:12:08.265Z,11.83
2019-03-24T09:13:08.418Z,11.87
2019-03-24T09:14:08.605Z,11.87
2019-03-24T09:15:08.756Z,12.00
2019-03-24T09:16:08.950Z,11.91
2019-03-24T09:17:09.084Z,11.91
2019-03-24T09:18:09.268Z,11.62
2019-03-24T09:19:09.450Z,11.55
2019-03-24T09:20:09.589Z,11.43
2019-03-24T09:21:09.763Z,11.41
2019-03-24T09:22:09.923Z,11.68
2019-03-24T09:23:10.694Z,11.78
2019-03-24T09:24:10.274Z,11.94
2019-03-24T09:25:10.465Z,12.02
2019-03-24T09:26:10.603Z,12.18
2019-03-24T09:27:10.766Z,12.27
2019-03-24T09:28:10.940Z,12.17
2019-03-24T09:29:11.110Z,12.25
2019-03-24T09:30:11.272Z,12.40
2019-03-24T09:31:11.429Z,12.65
2019-03-24T09:32:11.593Z,12.93
2019-03-24T09:33:11.756Z,13.25
2019-03-24T09:34:11.922Z,13.15
2019-03-24T09:35:12.113Z,13.20
2019-03-24T09:36:12.766Z,13.08
2019-03-24T09:37:12.394Z,12.62
2019-03-24T09:38:12.578Z,12.72
2019-03-24T09:39:12.745Z,12.39
2019-03-24T09:40:12.894Z,12.75
2019-03-24T09:41:13.085Z,12.75
2019-03-24T09:42:13.270Z,12.90
2019-03-24T09:43:13.404Z,13.11
2019-03-24T09:44:13.604Z,13.19
2019-03-24T09:45:13.761Z,13.52
2019-03-24T09:46:13.966Z,13.59
2019-03-24T09:47:14.087Z,13.56
2019-03-24T09:48:14.259Z,13.75
2019-03-24T09:49:14.459Z,13.53
2019-03-24T09:50:14.649Z,13.01
2019-03-24T09:51:14.849Z,13.27
2019-03-24T09:52:15.010Z,13.53
2019-03-24T09:53:15.145Z,13.97
2019-03-24T09:54:15.334Z,14.54
2019-03-24T09:55:15.507Z,14.25
2019-03-24T09:56:15.655Z,13.25
2019-03-24T09:57:15.813Z,12.98
2019-03-24T09:58:15.990Z,13.16
2019-03-24T09:59:16.155Z,13.19
2019-03-24T10:00:16.325Z,13.81
2019-03-24T10:01:16.491Z,14.36
2019-03-24T10:02:16.647Z,14.55
2019-03-24T10:03:16.817Z,14.30
2019-03-24T10:04:16.990Z,13.97
2019-03-24T10:05:17.157Z,14.26
2019-03-24T10:06:17.299Z,14.22
2019-03-24T10:07:17.471Z,14.73
2019-03-24T10:08:17.639Z,14.96
2019-03-24T10:09:17.780Z,15.22
2019-03-24T10:10:17.975Z,15.02
2019-03-24T10:11:18.138Z,14.96
2019-03-24T10:12:18.317Z,14.22
2019-03-24T10:13:18.476Z,14.35
2019-03-24T10:14:18.640Z,14.65
2019-03-24T10:15:18.801Z,14.32
2019-03-24T10:16:18.967Z,14.89
2019-03-24T10:17:19.144Z,15.37
2019-03-24T10:18:19.306Z,15.79
2019-03-24T10:19:19.490Z,16.29
2019-03-24T10:20:19.637Z,16.61
2019-03-24T10:21:19.808Z,16.54
2019-03-24T10:22:20.056Z,16.23
2019-03-24T10:23:20.160Z,15.79
2019-03-24T10:24:20.368Z,15.95
2019-03-24T10:25:20.529Z,15.90
2019-03-24T10:26:20.681Z,15.28
2019-03-24T10:27:20.883Z,15.27
2019-03-24T10:28:21.059Z,15.70
2019-03-24T10:29:21.219Z,15.94
2019-03-24T10:30:21.381Z,16.29
2019-03-24T10:31:21.559Z,16.65
2019-03-24T10:32:21.740Z,16.93
2019-03-24T10:33:21.910Z,16.24
2019-03-24T10:34:22.075Z,15.82
2019-03-24T10:35:22.271Z,15.91
2019-03-24T10:36:22.406Z,16.13
2019-03-24T10:37:22.591Z,16.02
2019-03-24T10:38:22.749Z,15.77
2019-03-24T10:39:22.934Z,16.02
2019-03-24T10:40:28.635Z,16.21
2019-03-24T10:41:23.254Z,16.28
2019-03-24T10:42:23.431Z,16.39
2019-03-24T10:43:23.589Z,16.79
2019-03-24T10:44:23.765Z,16.74
2019-03-24T10:45:23.924Z,16.10
2019-03-24T10:46:24.106Z,16.53
2019-03-24T10:47:24.299Z,16.87
2019-03-24T10:48:33.287Z,16.43
2019-03-24T10:49:25.384Z,15.46
2019-03-24T10:50:24.799Z,15.43
2019-03-24T10:51:24.936Z,15.54
2019-03-24T10:52:25.105Z,15.97
2019-03-24T10:53:25.297Z,15.91
2019-03-24T10:54:25.503Z,15.55
2019-03-24T10:55:25.697Z,15.92
2019-03-24T10:56:25.920Z,16.20
2019-03-24T10:57:26.869Z,16.49
2019-03-24T10:58:26.204Z,16.89
2019-03-24T10:59:26.323Z,17.49
2019-03-24T11:00:26.487Z,17.52
2019-03-24T11:01:26.655Z,17.74
2019-03-24T11:02:26.851Z,17.24
2019-03-24T11:03:26.995Z,17.26
2019-03-24T11:04:27.170Z,17.02
2019-03-24T11:05:27.338Z,16.65
2019-03-24T11:06:27.516Z,16.43
2019-03-24T11:07:27.697Z,16.12
2019-03-24T11:08:27.871Z,15.73
2019-03-24T11:09:28.042Z,15.80
2019-03-24T11:10:28.242Z,15.76
2019-03-24T11:11:37.007Z,15.79
2019-03-24T11:12:28.650Z,15.76
2019-03-24T11:13:28.707Z,15.70
2019-03-24T11:14:29.464Z,15.65
2019-03-24T11:15:29.119Z,15.75
2019-03-24T11:16:29.286Z,15.72
2019-03-24T11:17:29.487Z,15.68
2019-03-24T11:18:29.657Z,15.49
2019-03-24T11:19:35.790Z,15.28
2019-03-24T11:20:30.025Z,15.18
2019-03-24T11:21:30.192Z,15.19
2019-03-24T11:22:30.457Z,15.00
2019-03-24T11:23:30.544Z,14.97
2019-03-24T11:24:30.724Z,14.85
2019-03-24T11:25:30.903Z,14.85
2019-03-24T11:26:31.075Z,14.97
2019-03-24T11:27:31.267Z,14.78
2019-03-24T11:28:31.416Z,14.72
2019-03-24T11:29:31.596Z,14.72
2019-03-24T11:30:31.781Z,14.89
2019-03-24T11:31:32.011Z,14.88
2019-03-24T11:32:32.158Z,14.72
2019-03-24T11:33:32.345Z,14.82
2019-03-24T11:34:32.481Z,14.70
2019-03-24T11:35:32.643Z,14.84
2019-03-24T11:36:32.802Z,14.94
2019-03-24T11:37:33.030Z,14.85
2019-03-24T11:38:33.171Z,14.85
2019-03-24T11:39:33.349Z,14.59
2019-03-24T11:40:33.520Z,14.54
2019-03-24T11:41:33.737Z,14.63
2019-03-24T11:42:33.901Z,14.66
2019-03-24T11:43:34.083Z,14.54
2019-03-24T11:44:34.886Z,14.58
2019-03-24T11:45:34.418Z,14.65
2019-03-24T11:46:34.615Z,14.55
2019-03-24T11:47:34.781Z,14.63
2019-03-24T11:48:34.939Z,14.63
2019-03-24T11:49:45.392Z,14.48
2019-03-24T11:50:35.281Z,14.33
2019-03-24T11:51:35.484Z,14.11
2019-03-24T11:52:35.632Z,14.00
2019-03-24T11:53:35.795Z,13.85
2019-03-24T11:54:35.986Z,13.78
2019-03-24T11:55:36.171Z,13.81
2019-03-24T11:56:36.362Z,13.79
2019-03-24T11:57:36.528Z,13.74
2019-03-24T11:58:36.736Z,13.74
2019-03-24T11:59:36.828Z,13.68
2019-03-24T12:00:37.049Z,13.85
2019-03-24T12:01:38.427Z,13.74
2019-03-24T12:02:37.385Z,13.71
2019-03-24T12:03:37.572Z,13.72
2019-03-24T12:04:37.722Z,13.77
2019-03-24T12:05:37.910Z,13.78
2019-03-24T12:06:38.058Z,13.52
2019-03-24T12:07:38.258Z,13.50
2019-03-24T12:08:38.888Z,13.60
2019-03-24T12:09:38.580Z,13.53
2019-03-24T12:10:38.736Z,13.62
2019-03-24T12:11:38.920Z,13.50
2019-03-24T12:12:39.105Z,13.49
2019-03-24T12:13:39.347Z,13.41
2019-03-24T12:14:39.433Z,13.20
2019-03-24T12:15:39.603Z,13.30
2019-03-24T12:16:39.749Z,13.22
2019-03-24T12:17:39.908Z,13.33
2019-03-24T12:18:40.140Z,13.31
2019-03-24T12:19:40.305Z,13.27
2019-03-24T12:20:40.540Z,13.28
2019-03-24T12:21:40.678Z,13.23
2019-03-24T12:22:40.805Z,13.31
2019-03-24T12:23:40.991Z,13.23
2019-03-24T12:24:41.138Z,13.28
2019-03-24T12:25:41.314Z,13.16
2019-03-24T12:26:41.498Z,13.18
2019-03-24T12:27:41.632Z,13.27
2019-03-24T12:28:41.821Z,13.19
2019-03-24T12:29:41.988Z,13.27
2019-03-24T12:30:42.150Z,13.19
2019-03-24T12:31:42.334Z,13.22
2019-03-24T12:32:42.487Z,13.20
2019-03-24T12:33:42.618Z,13.13
2019-03-24T12:34:42.830Z,13.28
2019-03-24T12:35:42.965Z,13.27
2019-03-24T12:36:43.154Z,13.19
2019-03-24T12:37:43.281Z,13.31
2019-03-24T12:38:43.448Z,13.15
2019-03-24T12:39:43.623Z,13.28
2019-03-24T12:40:43.766Z,13.39
2019-03-24T12:41:43.943Z,13.42
2019-03-24T12:42:44.128Z,13.46
2019-03-24T12:43:44.272Z,13.50
2019-03-24T12:44:44.441Z,13.52
2019-03-24T12:45:44.619Z,13.60
2019-03-24T12:46:44.777Z,13.74
2019-03-24T12:47:44.942Z,13.78
2019-03-24T12:48:45.124Z,13.85
2019-03-24T12:49:45.267Z,13.68
2019-03-24T12:50:45.443Z,13.67
2019-03-24T12:51:45.587Z,13.63
2019-03-24T12:52:45.763Z,13.52
2019-03-24T12:53:45.956Z,13.39
2019-03-24T12:54:46.126Z,13.35
2019-03-24T12:55:46.296Z,13.39
2019-03-24T12:56:46.459Z,13.46
2019-03-24T12:57:46.614Z,13.41
2019-03-24T12:58:46.786Z,13.42
2019-03-24T12:59:46.949Z,13.42
2019-03-24T13:00:47.105Z,13.27
2019-03-24T13:01:47.275Z,13.20
2019-03-24T13:02:47.434Z,13.16
2019-03-24T13:03:47.625Z,13.22
2019-03-24T13:04:47.763Z,13.16
2019-03-24T13:05:47.929Z,13.23
2019-03-24T13:06:48.084Z,13.25
2019-03-24T13:07:48.256Z,13.23
2019-03-24T13:08:48.425Z,13.18